EDDW

Bremen Airport

Bremen, Germany
METAR EDDW 151920Z 29003KT 9999 FEW013 BKN027 03/02 Q1000 NOSIG
Observed Flight Rules
Dec-15 @ 19:20 UTC (25 minutes ago) Marginal Visual Flight Rules
Wind Visibility Clouds
290° at 3 knots 10,000+ meters
  • Few at 1,300' AGL
  • Broken at 2,700' AGL
Temperatures Readings
Current 3°C / 37°F
Dewpoint 2°C / 36°F
Humidity 93%
Altimeter 29.53" Hg
Pressure 1000 hPa
Elevation 5
METAR EDDW 151920Z 29003KT 9999 FEW013 BKN027 03/02 Q1000 NOSIG
Observed Flight Rules
Dec-15 @ 19:20 UTC
(25 minutes ago)
MVFR
Wind Visibility
290° at 3 knots 10,000+ meters
Clouds
  • Few at 1,300' AGL
  • Broken at 2,700' AGL
Temperature Dewpoint
3°C / 37°F 2°C / 36°F
Humidity Altimeter Pressure
93% 29.53" Hg 1000 hPa